Time;durP1;ratioP1;P1;durP2;ratioP2;P2;SDS_P1;SDS_P2;PMS_P1;PMS_P2;Temp;Humidity;BMP_temperature;BMP_pressure;BME280_temperature;BME280_humidity;BME280_pressure;Samples;Min_cycle;Max_cycle;Signal;HPM_P1;HPM_P2
2023/06/05 00:02:02;;;;;;;5.40;3.35;;;;;;;14.48;100.00;101427.72;5024921;28;20033;-84
2023/06/05 00:04:28;;;;;;;9.95;3.85;;;;;;;14.42;100.00;101433.63;5007942;28;20132;-84
2023/06/05 00:06:56;;;;;;;11.95;3.65;;;;;;;14.32;100.00;101431.00;5013896;28;20391;-83
2023/06/05 00:09:22;;;;;;;6.20;4.00;;;;;;;14.16;100.00;101431.59;5031091;28;20398;-84
2023/06/05 00:11:48;;;;;;;7.32;3.13;;;;;;;14.01;100.00;101431.22;5025062;28;20052;-84
2023/06/05 00:14:14;;;;;;;7.18;3.78;;;;;;;13.98;100.00;101432.31;5036609;28;20484;-84
2023/06/05 00:16:40;;;;;;;8.05;3.60;;;;;;;13.98;100.00;101427.00;5029981;28;20029;-84
2023/06/05 00:19:06;;;;;;;6.18;3.55;;;;;;;14.00;100.00;101432.16;5048059;28;20044;-84
2023/06/05 00:21:32;;;;;;;4.65;3.50;;;;;;;13.93;100.00;101436.41;4996690;28;20051;-84
2023/06/05 00:23:58;;;;;;;5.57;3.40;;;;;;;13.69;100.00;101425.22;5018957;28;20033;-84
2023/06/05 00:26:24;;;;;;;8.27;3.78;;;;;;;13.53;100.00;101431.09;5027698;28;20498;-84
2023/06/05 00:28:50;;;;;;;6.38;2.90;;;;;;;13.52;100.00;101430.25;5045974;28;20586;-84
2023/06/05 00:31:18;;;;;;;3.85;3.13;;;;;;;13.52;100.00;101429.44;5029725;28;20063;-84
2023/06/05 00:33:44;;;;;;;5.43;3.45;;;;;;;13.56;100.00;101430.81;5022124;28;20124;-84
2023/06/05 00:36:11;;;;;;;4.53;3.17;;;;;;;13.51;100.00;101419.78;5038220;28;20090;-84
2023/06/05 00:38:37;;;;;;;9.07;3.80;;;;;;;13.42;100.00;101418.78;5019872;28;20033;-84
2023/06/05 00:41:03;;;;;;;5.53;3.22;;;;;;;13.17;100.00;101422.81;5022519;28;20516;-82
2023/06/05 00:43:29;;;;;;;10.13;4.50;;;;;;;12.93;100.00;101432.81;5013384;28;20681;-82
2023/06/05 00:46:03;;;;;;;5.50;3.28;;;;;;;12.84;100.00;101425.63;5013624;28;20033;-84
2023/06/05 00:48:31;;;;;;;7.85;3.63;;;;;;;12.77;100.00;101426.19;5028493;28;20068;-84
2023/06/05 00:50:57;;;;;;;6.63;3.28;;;;;;;12.81;100.00;101425.91;5016192;28;20095;-81
2023/06/05 00:53:24;;;;;;;6.82;3.70;;;;;;;12.78;100.00;101417.25;5033288;28;20095;-81
2023/06/05 00:55:51;;;;;;;6.07;3.20;;;;;;;12.82;100.00;101420.47;5014205;28;20029;-84
2023/06/05 00:58:17;;;;;;;5.40;3.38;;;;;;;12.89;100.00;101420.78;5039418;28;20417;-84
2023/06/05 01:00:44;;;;;;;11.85;4.05;;;;;;;12.92;100.00;101415.19;5048938;28;20037;-84
2023/06/05 01:03:11;;;;;;;6.00;3.90;;;;;;;12.91;100.00;101413.53;5020512;28;20426;-84
2023/06/05 01:05:38;;;;;;;5.68;3.72;;;;;;;12.87;100.00;101414.75;5023650;28;20048;-83
2023/06/05 01:08:04;;;;;;;7.97;4.07;;;;;;;12.92;100.00;101417.00;5023845;28;20056;-84
2023/06/05 01:10:31;;;;;;;6.65;3.78;;;;;;;12.86;100.00;101410.44;5026605;28;20033;-84
2023/06/05 01:13:00;;;;;;;5.95;3.50;;;;;;;12.92;100.00;101415.19;5030667;28;20036;-84
2023/06/05 01:15:29;;;;;;;3.78;3.03;;;;;;;12.97;100.00;101398.84;5015613;28;20033;-84
2023/06/05 01:17:59;;;;;;;5.93;3.53;;;;;;;13.00;100.00;101411.84;5018430;28;20025;-84
2023/06/05 01:20:38;;;;;;;8.73;3.33;;;;;;;13.01;100.00;101405.59;5042181;28;20036;-84
2023/06/05 01:23:05;;;;;;;9.50;3.38;;;;;;;12.82;100.00;101399.25;5033123;28;20244;-84
2023/06/05 01:25:32;;;;;;;7.57;3.40;;;;;;;12.67;100.00;101404.09;5040382;28;20052;-84
2023/06/05 01:28:02;;;;;;;8.10;4.25;;;;;;;12.55;100.00;101398.03;5020735;28;20385;-84
2023/06/05 01:30:34;;;;;;;5.53;3.60;;;;;;;12.40;100.00;101395.78;5046237;28;20052;-85
2023/06/05 01:33:02;;;;;;;5.88;3.40;;;;;;;12.30;100.00;101408.13;5032684;28;20032;-84
2023/06/05 01:35:32;;;;;;;6.07;4.55;;;;;;;12.27;100.00;101406.59;5029474;28;20025;-84
2023/06/05 01:38:05;;;;;;;8.88;3.80;;;;;;;12.27;100.00;101398.63;5017363;28;20083;-84
2023/06/05 01:40:33;;;;;;;5.72;3.80;;;;;;;12.31;100.00;101401.84;5033817;28;20037;-84
2023/06/05 01:43:02;;;;;;;7.60;4.05;;;;;;;12.27;100.00;101398.63;5000570;28;20106;-84
2023/06/05 01:45:28;;;;;;;5.70;3.75;;;;;;;12.33;100.00;101399.91;5021218;28;20076;-84
2023/06/05 01:47:56;;;;;;;4.90;3.58;;;;;;;12.38;100.00;101400.34;5016908;28;20033;-84
2023/06/05 01:50:23;;;;;;;7.93;3.55;;;;;;;12.39;100.00;101387.94;5033997;28;20059;-85
2023/06/05 01:52:49;;;;;;;6.25;3.63;;;;;;;12.45;100.00;101386.56;5032899;28;20025;-84
2023/06/05 01:55:23;;;;;;;8.80;3.58;;;;;;;12.50;100.00;101387.00;5017540;28;20041;-83
2023/06/05 01:57:50;;;;;;;6.53;3.55;;;;;;;12.53;100.00;101394.69;5030410;28;20068;-84
2023/06/05 02:00:17;;;;;;;7.80;4.63;;;;;;;12.57;100.00;101395.25;5033887;28;20039;-84
2023/06/05 02:02:50;;;;;;;5.95;3.40;;;;;;;12.59;100.00;101395.97;5040540;28;20028;-84
2023/06/05 02:05:17;;;;;;;8.45;4.18;;;;;;;12.57;100.00;101395.25;5050364;28;20490;-81
2023/06/05 02:07:53;;;;;;;5.70;3.75;;;;;;;12.57;100.00;101388.16;5032364;28;20112;-81
2023/06/05 02:10:19;;;;;;;6.15;3.53;;;;;;;12.52;100.00;101393.00;5015036;28;20052;-84
2023/06/05 02:12:46;;;;;;;6.07;3.30;;;;;;;12.47;100.00;101393.41;5003859;28;20364;-85
2023/06/05 02:15:14;;;;;;;10.18;4.13;;;;;;;12.52;100.00;101388.53;5014430;28;20037;-84
2023/06/05 02:17:53;;;;;;;11.52;3.90;;;;;;;12.59;100.00;101385.34;5049162;28;20498;-83
2023/06/05 02:20:21;;;;;;;8.60;4.07;;;;;;;12.60;100.00;101379.06;5019332;28;20056;-84
2023/06/05 02:22:51;;;;;;;9.20;3.85;;;;;;;12.56;100.00;101386.47;5033466;28;20205;-84
2023/06/05 02:25:18;;;;;;;6.10;3.80;;;;;;;12.50;100.00;101382.53;5045836;28;20033;-84
2023/06/05 02:27:44;;;;;;;6.82;3.63;;;;;;;12.48;100.00;101381.00;5041169;28;20036;-84
2023/06/05 02:30:11;;;;;;;9.70;3.97;;;;;;;12.41;100.00;101378.03;5016254;28;20036;-84
2023/06/05 02:32:41;;;;;;;12.07;3.33;;;;;;;12.29;100.00;101372.00;5016637;28;20044;-84
2023/06/05 02:35:08;;;;;;;6.45;3.97;;;;;;;12.23;100.00;101378.66;5017400;28;20083;-84
2023/06/05 02:37:37;;;;;;;8.50;4.00;;;;;;;12.21;100.00;101383.25;5031762;28;20079;-84
2023/06/05 02:40:05;;;;;;;8.27;3.67;;;;;;;12.22;100.00;101378.78;5027242;28;20103;-84
2023/06/05 02:42:31;;;;;;;9.20;4.03;;;;;;;12.24;100.00;101379.50;5014001;28;20067;-84
2023/06/05 02:44:57;;;;;;;8.48;4.15;;;;;;;12.25;100.00;101371.41;5021245;28;20033;-81
2023/06/05 02:47:23;;;;;;;8.50;4.20;;;;;;;12.21;100.00;101367.34;5030735;28;20029;-81
2023/06/05 02:49:49;;;;;;;7.95;3.95;;;;;;;12.13;100.00;101372.47;5015375;28;20040;-83
2023/06/05 02:52:14;;;;;;;8.88;4.38;;;;;;;12.03;100.00;101367.09;5015073;28;20051;-83
2023/06/05 02:54:40;;;;;;;9.18;4.07;;;;;;;11.98;100.00;101366.63;4998560;28;20029;-84
2023/06/05 02:57:08;;;;;;;8.65;3.58;;;;;;;11.95;100.00;101367.75;4995474;28;20120;-84
2023/06/05 02:59:39;;;;;;;8.88;4.30;;;;;;;11.97;100.00;101367.59;5015652;28;20033;-84
2023/06/05 03:02:09;;;;;;;6.40;3.97;;;;;;;12.01;100.00;101361.06;5026879;28;20025;-84
2023/06/05 03:04:40;;;;;;;5.13;3.70;;;;;;;12.09;100.00;101366.59;5021190;28;20036;-84
2023/06/05 03:07:09;;;;;;;6.88;3.72;;;;;;;12.13;100.00;101362.72;5014678;28;20042;-84
2023/06/05 03:09:36;;;;;;;7.50;3.78;;;;;;;12.21;100.00;101369.16;5017983;28;20341;-84
2023/06/05 03:12:03;;;;;;;7.32;3.95;;;;;;;12.18;100.00;101370.28;5029719;28;20427;-84
2023/06/05 03:14:30;;;;;;;7.30;3.88;;;;;;;12.15;100.00;101367.88;5021859;28;20074;-84
2023/06/05 03:16:58;;;;;;;8.57;4.07;;;;;;;12.15;100.00;101367.88;5022513;28;20073;-84
2023/06/05 03:19:25;;;;;;;6.70;4.20;;;;;;;12.19;100.00;101365.78;5002606;28;20060;-84
2023/06/05 03:21:53;;;;;;;4.75;3.35;;;;;;;12.18;100.00;101361.47;4991264;28;20113;-84
2023/06/05 03:24:19;;;;;;;8.88;4.28;;;;;;;12.14;100.00;101372.34;4993247;28;20541;-84
2023/06/05 03:26:51;;;;;;;8.98;3.80;;;;;;;12.09;100.00;101361.28;5015621;28;20072;-84
2023/06/05 03:29:17;;;;;;;8.20;3.92;;;;;;;12.09;100.00;101366.59;4974549;28;20049;-84
2023/06/05 03:31:44;;;;;;;6.88;3.65;;;;;;;12.00;100.00;101364.69;4983817;28;20416;-84
2023/06/05 03:34:11;;;;;;;4.75;3.13;;;;;;;11.89;100.00;101365.63;4994935;28;20044;-84
2023/06/05 03:36:39;;;;;;;5.95;3.42;;;;;;;11.85;100.00;101353.59;4995757;28;20029;-84
2023/06/05 03:39:07;;;;;;;5.57;3.25;;;;;;;11.81;100.00;101355.66;5014113;28;20041;-83
2023/06/05 03:41:35;;;;;;;3.35;2.78;;;;;;;11.85;100.00;101358.91;5012004;28;20037;-84
2023/06/05 03:44:03;;;;;;;7.18;3.95;;;;;;;11.86;100.00;101353.47;5009735;28;20025;-84
2023/06/05 03:46:29;;;;;;;5.00;3.53;;;;;;;11.88;100.00;101353.34;4994782;28;20136;-84
2023/06/05 03:48:59;;;;;;;7.50;3.42;;;;;;;11.87;100.00;101354.31;5010687;28;20038;-84
2023/06/05 03:51:30;;;;;;;6.28;2.85;;;;;;;11.86;100.00;101350.84;5008179;28;20053;-84
2023/06/05 03:53:58;;;;;;;2.92;2.63;;;;;;;11.89;100.00;101352.38;5010636;28;20065;-84
2023/06/05 03:56:28;;;;;;;6.22;3.33;;;;;;;11.93;100.00;101356.44;4995428;28;20037;-84
2023/06/05 03:58:55;;;;;;;9.50;3.75;;;;;;;11.88;100.00;101354.16;5010444;28;20407;-84
2023/06/05 04:01:22;;;;;;;5.28;3.50;;;;;;;11.79;100.00;101349.66;5001948;28;20399;-81
2023/06/05 04:03:48;;;;;;;7.38;3.70;;;;;;;11.74;100.00;101355.34;4996173;28;20033;-81
2023/06/05 04:06:14;;;;;;;7.03;4.05;;;;;;;11.70;100.00;101347.78;5009749;28;20042;-84
2023/06/05 04:08:40;;;;;;;6.65;3.35;;;;;;;11.66;100.00;101355.13;4990132;28;20026;-82
2023/06/05 04:11:06;;;;;;;6.75;3.65;;;;;;;11.62;100.00;101348.44;5006095;28;20558;-81
2023/06/05 04:13:32;;;;;;;6.38;3.65;;;;;;;11.61;100.00;101360.00;5014803;28;20116;-81
2023/06/05 04:15:58;;;;;;;3.70;3.13;;;;;;;11.66;100.00;101352.50;5015947;28;20032;-84
2023/06/05 04:18:25;;;;;;;11.13;3.90;;;;;;;11.60;100.00;101361.81;5016999;28;20076;-84
2023/06/05 04:20:53;;;;;;;8.43;4.40;;;;;;;11.62;100.00;101365.16;4996046;28;20113;-84
2023/06/05 04:23:19;;;;;;;6.13;3.88;;;;;;;11.61;100.00;101366.13;5015110;28;21939;-84
2023/06/05 04:25:48;;;;;;;6.30;3.60;;;;;;;11.62;100.00;101357.22;5015177;28;20037;-83
2023/06/05 04:28:15;;;;;;;8.50;4.22;;;;;;;11.64;100.00;101359.75;5015694;28;20045;-84
2023/06/05 04:30:41;;;;;;;10.55;3.90;;;;;;;11.63;100.00;101358.03;5001240;28;20033;-84
2023/06/05 04:33:06;;;;;;;9.70;3.78;;;;;;;11.70;100.00;101359.22;4979884;28;20036;-84
2023/06/05 04:35:35;;;;;;;5.60;3.72;;;;;;;11.69;100.00;101362.81;5002696;28;20522;-84
2023/06/05 04:38:01;;;;;;;6.85;3.75;;;;;;;11.71;100.00;101360.91;5000390;28;20037;-84
2023/06/05 04:40:27;;;;;;;6.20;4.22;;;;;;;11.74;100.00;101362.44;5000653;28;20034;-83
2023/06/05 04:42:54;;;;;;;8.68;4.65;;;;;;;11.74;100.00;101363.28;5000613;28;20503;-84
2023/06/05 04:45:24;;;;;;;7.40;3.90;;;;;;;11.75;100.00;101367.59;4999079;28;20063;-83
2023/06/05 04:47:51;;;;;;;5.20;3.33;;;;;;;11.77;100.00;101370.13;5015206;28;20033;-83
2023/06/05 04:50:27;;;;;;;7.18;4.13;;;;;;;11.78;100.00;101364.69;5021110;28;20087;-84
2023/06/05 04:53:11;;;;;;;10.68;4.05;;;;;;;11.75;100.00;101364.13;4996378;28;20041;-83
2023/06/05 04:55:39;;;;;;;7.10;3.70;;;;;;;11.75;100.00;101366.78;5017047;28;20044;-81
2023/06/05 04:58:06;;;;;;;6.22;4.03;;;;;;;11.73;100.00;101372.22;5015116;28;20400;-81
2023/06/05 05:00:32;;;;;;;8.25;4.30;;;;;;;11.72;100.00;101369.69;5028649;28;20060;-84
2023/06/05 05:03:00;;;;;;;9.95;4.22;;;;;;;11.79;100.00;101370.84;5014718;28;20041;-84
2023/06/05 05:05:26;;;;;;;7.90;4.38;;;;;;;11.84;100.00;101368.66;5032139;28;20034;-83
2023/06/05 05:07:54;;;;;;;9.88;4.43;;;;;;;11.91;100.00;101368.97;4992844;28;20390;-84
2023/06/05 05:10:21;;;;;;;10.27;4.65;;;;;;;11.98;100.00;101370.13;4982499;28;20052;-83
2023/06/05 05:12:47;;;;;;;12.48;5.00;;;;;;;12.07;100.00;101367.66;4930312;28;20030;-84
2023/06/05 05:15:14;;;;;;;5.93;3.90;;;;;;;12.13;100.00;101368.03;5014329;28;20068;-83
2023/06/05 05:17:41;;;;;;;7.88;4.72;;;;;;;12.22;100.00;101376.13;5014350;28;20487;-84
2023/06/05 05:20:07;;;;;;;9.48;4.88;;;;;;;12.25;100.00;101367.91;5036619;28;20090;-84
2023/06/05 05:22:35;;;;;;;9.73;4.40;;;;;;;12.27;100.00;101371.28;5027747;28;20069;-83
2023/06/05 05:25:01;;;;;;;9.18;4.80;;;;;;;12.28;100.00;101360.53;5052953;28;20025;-84
2023/06/05 05:27:27;;;;;;;9.43;4.93;;;;;;;12.28;100.00;101365.84;5031433;28;20037;-84
2023/06/05 05:29:54;;;;;;;8.55;4.68;;;;;;;12.29;100.00;101364.03;5014446;28;20064;-81
2023/06/05 05:32:19;;;;;;;9.63;4.57;;;;;;;12.34;100.00;101363.66;5013956;28;20065;-81
2023/06/05 05:34:46;;;;;;;9.63;4.45;;;;;;;12.38;100.00;101378.31;5030696;28;20045;-84
2023/06/05 05:37:13;;;;;;;8.52;4.50;;;;;;;12.40;100.00;101371.91;4998008;28;20103;-83
2023/06/05 05:39:39;;;;;;;11.25;5.22;;;;;;;12.46;100.00;101372.31;5029636;28;20037;-84
2023/06/05 05:42:05;;;;;;;13.80;4.78;;;;;;;12.52;100.00;101369.13;5029261;28;20036;-84
2023/06/05 05:44:31;;;;;;;9.45;5.05;;;;;;;12.57;100.00;101366.06;5028085;28;20483;-81
2023/06/05 05:46:56;;;;;;;6.55;4.47;;;;;;;12.60;100.00;101369.31;5012364;28;20492;-81
2023/06/05 05:49:22;;;;;;;10.45;4.85;;;;;;;12.61;100.00;101370.16;5029816;28;20037;-83
2023/06/05 05:51:49;;;;;;;9.85;4.93;;;;;;;12.65;100.00;101377.72;5029365;28;20052;-84
2023/06/05 05:54:15;;;;;;;9.32;4.80;;;;;;;12.69;100.00;101370.31;5029726;28;20112;-84
2023/06/05 05:56:42;;;;;;;9.93;4.50;;;;;;;12.76;100.00;101382.06;5029024;28;20162;-84
2023/06/05 05:59:08;;;;;;;7.13;4.65;;;;;;;12.83;100.00;101376.22;5034353;28;20029;-84
2023/06/05 06:01:34;;;;;;;10.18;4.70;;;;;;;12.87;100.00;101377.59;5029813;28;20128;-80
2023/06/05 06:04:00;;;;;;;6.25;4.60;;;;;;;12.97;100.00;101381.13;5038345;28;20029;-81
2023/06/05 06:06:26;;;;;;;9.68;5.07;;;;;;;13.01;100.00;101379.06;5009150;28;20037;-84
2023/06/05 06:08:52;;;;;;;9.32;4.70;;;;;;;13.07;100.00;101380.31;5012087;28;20025;-84
2023/06/05 06:11:18;;;;;;;10.35;4.85;;;;;;;13.10;100.00;101375.56;5013203;28;20048;-84
2023/06/05 06:13:44;;;;;;;9.13;4.40;;;;;;;13.05;100.00;101366.31;4997393;28;20484;-84
2023/06/05 06:16:10;;;;;;;7.40;4.45;;;;;;;13.02;100.00;101370.94;5029643;28;20045;-84
2023/06/05 06:18:35;;;;;;;12.93;4.57;;;;;;;13.11;100.00;101373.72;5029652;28;20057;-84
2023/06/05 06:21:01;;;;;;;8.18;4.75;;;;;;;13.17;100.00;101369.72;5028149;28;20063;-85
2023/06/05 06:23:27;;;;;;;7.55;4.35;;;;;;;13.17;100.00;101370.53;5031919;28;20387;-84
2023/06/05 06:25:53;;;;;;;8.73;4.45;;;;;;;13.19;100.00;101373.88;5028688;28;20053;-84
2023/06/05 06:28:19;;;;;;;9.18;4.43;;;;;;;13.24;100.00;101363.69;5041747;28;20045;-84
2023/06/05 06:30:45;;;;;;;9.52;4.80;;;;;;;13.23;100.00;101366.50;5030231;28;20553;-84
2023/06/05 06:33:11;;;;;;;6.50;4.40;;;;;;;13.34;100.00;101365.50;5023909;28;20044;-84
2023/06/05 06:35:37;;;;;;;7.25;4.97;;;;;;;13.44;100.00;101376.97;5017307;28;20048;-81
2023/06/05 06:38:03;;;;;;;10.73;4.50;;;;;;;13.46;100.00;101385.63;5021774;28;20041;-81
2023/06/05 06:40:29;;;;;;;8.02;4.25;;;;;;;13.50;100.00;101384.44;5011299;28;20049;-84
2023/06/05 06:42:55;;;;;;;6.68;4.35;;;;;;;13.54;100.00;101386.81;5011818;28;20033;-85
2023/06/05 06:45:31;;;;;;;9.07;4.30;;;;;;;13.47;100.00;101383.84;5050287;28;20025;-84
2023/06/05 06:47:57;;;;;;;11.25;4.55;;;;;;;13.42;100.00;101394.88;5020648;28;20422;-84
2023/06/05 06:50:23;;;;;;;10.02;5.03;;;;;;;13.44;100.00;101384.94;5044667;28;20087;-85
2023/06/05 06:52:48;;;;;;;8.90;4.72;;;;;;;13.56;100.00;101384.81;5028686;28;20026;-84
2023/06/05 06:55:14;;;;;;;10.75;4.35;;;;;;;13.61;100.00;101382.59;5042711;28;20467;-84
2023/06/05 06:57:40;;;;;;;6.50;4.05;;;;;;;13.67;100.00;101382.03;5035125;28;20025;-84
2023/06/05 07:00:08;;;;;;;10.00;4.68;;;;;;;13.71;100.00;101377.28;5021060;28;20042;-84
2023/06/05 07:02:34;;;;;;;10.55;4.70;;;;;;;13.73;100.00;101378.78;5024884;28;20447;-84
2023/06/05 07:05:00;;;;;;;6.65;3.92;;;;;;;13.71;100.00;101383.41;5028733;28;20037;-84
2023/06/05 07:07:27;;;;;;;8.00;4.07;;;;;;;13.78;100.00;101383.69;5026446;28;20535;-84
2023/06/05 07:09:53;;;;;;;7.03;3.80;;;;;;;13.87;100.00;101379.34;5044389;28;20056;-84
2023/06/05 07:12:22;;;;;;;7.88;3.72;;;;;;;13.98;100.00;101378.34;5027586;28;20045;-85
2023/06/05 07:14:48;;;;;;;9.13;4.53;;;;;;;14.18;100.00;101384.44;5022204;28;20037;-84
2023/06/05 07:17:14;;;;;;;10.43;4.35;;;;;;;14.40;100.00;101379.72;5015530;28;20045;-84
2023/06/05 07:19:40;;;;;;;12.07;4.05;;;;;;;14.65;100.00;101390.69;5026052;28;20091;-84
2023/06/05 07:22:06;;;;;;;7.47;4.25;;;;;;;14.96;100.00;101384.22;5036100;28;20080;-85
2023/06/05 07:24:35;;;;;;;10.15;4.15;;;;;;;15.35;100.00;101386.59;5012797;28;20054;-85
2023/06/05 07:27:02;;;;;;;6.25;3.70;;;;;;;15.66;100.00;101387.16;4982067;28;21062;-84
2023/06/05 07:29:29;;;;;;;6.00;3.97;;;;;;;15.98;100.00;101386.63;4968699;28;20077;-84
2023/06/05 07:31:56;;;;;;;8.90;3.67;;;;;;;16.18;100.00;101386.38;4978910;28;20417;-84
2023/06/05 07:34:24;;;;;;;8.25;4.05;;;;;;;16.40;100.00;101386.84;4964406;28;20034;-84
2023/06/05 07:36:51;;;;;;;8.80;3.55;;;;;;;16.65;100.00;101391.44;4969979;28;20695;-84
2023/06/05 07:39:19;;;;;;;7.70;4.20;;;;;;;16.82;100.00;101393.16;4986389;28;20049;-84
2023/06/05 07:41:44;;;;;;;5.60;4.13;;;;;;;16.93;100.00;101388.53;4944929;28;20042;-79
2023/06/05 07:46:56;;;;;;;8.40;3.95;;;;;;;17.25;100.00;101383.44;4975074;28;20140;-84
2023/06/05 07:49:24;;;;;;;8.57;3.88;;;;;;;17.39;100.00;101388.09;4966093;28;20144;-82
2023/06/05 07:51:50;;;;;;;6.18;3.58;;;;;;;17.36;100.00;101389.28;4948630;28;20508;-83
2023/06/05 07:54:20;;;;;;;7.90;3.75;;;;;;;17.42;100.00;101398.47;4984091;28;20050;-84
2023/06/05 07:56:50;;;;;;;16.42;4.72;;;;;;;17.46;100.00;101393.63;4957339;28;20540;-84
2023/06/05 07:59:17;;;;;;;6.20;3.95;;;;;;;17.60;100.00;101394.78;5005894;28;20575;-84
2023/06/05 08:01:45;;;;;;;7.63;3.33;;;;;;;17.61;100.00;101394.59;4987828;28;20052;-84
2023/06/05 08:04:11;;;;;;;6.25;3.42;;;;;;;17.61;100.00;101391.13;4987562;28;20143;-84
2023/06/05 08:06:40;;;;;;;7.38;3.88;;;;;;;17.61;100.00;101385.78;4965110;28;20046;-80
2023/06/05 08:09:09;;;;;;;7.22;4.15;;;;;;;17.66;100.00;101391.44;4982406;28;20041;-81
2023/06/05 08:11:38;;;;;;;5.32;3.60;;;;;;;17.71;100.00;101388.28;4958285;28;20046;-84
2023/06/05 08:14:06;;;;;;;5.53;3.67;;;;;;;17.71;100.00;101389.09;4998438;28;20567;-84
2023/06/05 08:16:32;;;;;;;5.38;3.60;;;;;;;17.74;100.00;101390.63;4987600;28;20534;-84
2023/06/05 08:18:58;;;;;;;6.32;4.30;;;;;;;17.76;100.00;101393.94;5015051;28;20045;-85
2023/06/05 08:21:24;;;;;;;5.05;3.55;;;;;;;17.76;100.00;101385.91;5028746;28;20391;-85
2023/06/05 08:23:50;;;;;;;5.82;4.05;;;;;;;17.83;100.00;101400.28;5028043;28;20036;-85
2023/06/05 08:26:18;;;;;;;7.30;4.00;;;;;;;17.94;100.00;101388.41;5028113;28;20036;-85
2023/06/05 08:28:44;;;;;;;5.95;3.70;;;;;;;18.02;100.00;101394.72;4958959;28;20052;-85
2023/06/05 08:31:10;;;;;;;12.35;4.38;;;;;;;18.08;100.00;101386.03;5012327;28;20026;-85
2023/06/05 08:33:37;;;;;;;9.20;5.03;;;;;;;18.06;100.00;101380.84;4989102;28;20457;-85
2023/06/05 08:36:04;;;;;;;8.13;4.20;;;;;;;18.08;100.00;101378.00;4994596;28;20125;-81
2023/06/05 08:38:30;;;;;;;6.18;4.18;;;;;;;18.15;100.00;101380.84;5024389;28;20045;-81
2023/06/05 08:41:00;;;;;;;8.00;4.53;;;;;;;18.30;100.00;101386.34;5008752;28;20076;-85
2023/06/05 08:43:27;;;;;;;5.95;4.15;;;;;;;18.31;100.00;101383.50;5022939;28;20384;-85
2023/06/05 08:45:55;;;;;;;9.38;4.05;;;;;;;18.34;100.00;101383.16;4994731;28;20041;-85
2023/06/05 08:48:22;;;;;;;5.95;4.10;;;;;;;18.38;100.00;101386.28;5009803;28;20124;-85
2023/06/05 08:50:48;;;;;;;5.53;3.80;;;;;;;18.45;100.00;101375.72;4976206;28;20032;-85
2023/06/05 08:53:17;;;;;;;6.50;3.65;;;;;;;18.62;100.00;101378.34;5024935;28;20522;-86
2023/06/05 08:55:45;;;;;;;4.80;3.67;;;;;;;18.64;100.00;101373.63;5003362;28;20072;-85
2023/06/05 08:58:13;;;;;;;6.00;3.95;;;;;;;18.72;100.00;101370.91;5024926;28;20120;-85
2023/06/05 09:00:40;;;;;;;5.38;3.38;;;;;;;18.77;100.00;101373.91;5024594;28;20747;-85
2023/06/05 09:03:06;;;;;;;7.63;3.72;;;;;;;18.88;100.00;101374.50;4997458;28;20036;-84
2023/06/05 09:05:32;;;;;;;5.78;3.35;;;;;;;18.93;100.00;101372.13;5001321;28;20033;-85
2023/06/05 09:07:59;;;;;;;6.32;2.80;;;;;;;19.02;100.00;101372.91;5045600;28;20381;-84
2023/06/05 09:10:28;;;;;;;5.05;2.90;;;;;;;19.15;100.00;101370.50;5015548;28;20474;-84
2023/06/05 09:12:55;;;;;;;8.45;3.83;;;;;;;19.24;100.00;101360.56;4997003;28;20067;-84
2023/06/05 09:15:26;;;;;;;11.18;3.70;;;;;;;19.34;100.00;101350.44;5013651;28;20483;-85
2023/06/05 09:18:14;;;;;;;6.55;3.20;;;;;;;19.27;100.00;101356.69;5011540;28;20391;-85
2023/06/05 09:20:47;;;;;;;5.50;3.10;;;;;;;19.20;100.00;101354.75;4997388;28;20067;-86
2023/06/05 09:23:28;;;;;;;4.68;2.92;;;;;;;19.37;100.00;101356.44;5009237;28;20088;-85
2023/06/05 09:25:56;;;;;;;4.93;2.85;;;;;;;19.41;100.00;101350.56;5012009;28;20072;-85
2023/06/05 09:28:22;;;;;;;4.55;2.70;;;;;;;19.39;100.00;101357.09;5016231;28;20526;-86
2023/06/05 09:30:59;;;;;;;3.17;2.00;;;;;;;19.41;100.00;101360.44;5030771;28;20049;-85
2023/06/05 09:33:27;;;;;;;3.45;2.40;;;;;;;19.48;100.00;101364.03;5009094;28;20037;-85
2023/06/05 09:36:09;;;;;;;5.63;2.30;;;;;;;19.59;99.48;101360.09;5028199;28;20080;-85
2023/06/05 09:38:37;;;;;;;3.00;2.05;;;;;;;19.54;98.00;101360.63;5009008;28;20068;-85
2023/06/05 09:41:04;;;;;;;5.07;2.47;;;;;;;19.48;96.40;101361.34;4976902;28;20033;-82
2023/06/05 09:43:30;;;;;;;4.22;2.10;;;;;;;19.61;94.73;101366.09;5025718;28;20514;-82
2023/06/05 09:45:56;;;;;;;2.47;1.95;;;;;;;19.67;93.15;101368.06;4995601;28;20030;-85
2023/06/05 09:48:22;;;;;;;5.03;2.20;;;;;;;19.76;92.01;101362.63;5029298;28;20037;-85
2023/06/05 09:50:47;;;;;;;5.53;2.45;;;;;;;19.76;91.40;101362.63;5029672;28;20036;-84
2023/06/05 09:53:20;;;;;;;2.95;2.00;;;;;;;19.87;88.98;101370.22;5029473;28;20116;-85
2023/06/05 09:55:46;;;;;;;2.22;1.52;;;;;;;19.89;88.72;101370.84;5011878;28;20410;-86
2023/06/05 09:58:14;;;;;;;4.57;1.77;;;;;;;19.97;87.30;101361.91;5012187;28;20037;-86
2023/06/05 10:00:41;;;;;;;8.02;1.80;;;;;;;20.04;85.78;101362.84;5012554;28;20248;-87
2023/06/05 10:03:17;;;;;;;4.13;1.98;;;;;;;20.15;84.88;101369.59;5029562;28;20068;-85
2023/06/05 10:05:44;;;;;;;3.17;1.70;;;;;;;20.24;85.73;101361.47;5028336;28;20557;-85
2023/06/05 10:08:13;;;;;;;3.45;1.65;;;;;;;20.26;85.18;101362.13;5010926;28;20036;-84
2023/06/05 10:10:39;;;;;;;3.50;1.70;;;;;;;20.25;84.61;101372.00;4996501;28;20484;-86
2023/06/05 10:13:05;;;;;;;4.90;1.85;;;;;;;20.32;84.51;101361.38;5012306;28;20045;-88
2023/06/05 10:15:32;;;;;;;4.07;1.70;;;;;;;20.34;82.47;101362.00;5011655;28;20053;-87
2023/06/05 10:18:00;;;;;;;4.65;2.03;;;;;;;20.40;81.06;101358.56;4997266;28;20041;-85
2023/06/05 10:20:27;;;;;;;6.65;2.38;;;;;;;20.45;80.55;101366.88;5027540;28;20500;-85
2023/06/05 10:22:54;;;;;;;2.47;1.55;;;;;;;20.53;79.26;101368.63;5011873;28;20104;-85
2023/06/05 10:25:20;;;;;;;2.65;1.52;;;;;;;20.53;79.88;101362.44;5022078;28;20045;-86
2023/06/05 10:28:19;;;;;;;3.42;1.80;;;;;;;20.63;75.35;101368.34;5011621;28;20120;-86
2023/06/05 10:30:59;;;;;;;2.72;1.70;;;;;;;20.67;76.29;101368.81;4986313;28;20780;-86
2023/06/05 10:33:41;;;;;;;2.30;1.67;;;;;;;20.69;72.64;101367.59;5005477;28;20069;-86
2023/06/05 10:36:19;;;;;;;2.47;1.67;;;;;;;20.79;70.67;101363.75;5012195;28;20037;-86
2023/06/05 10:38:45;;;;;;;3.35;1.60;;;;;;;20.72;72.07;101371.72;5000931;28;20042;-85
2023/06/05 10:41:11;;;;;;;3.58;1.67;;;;;;;20.79;73.72;101374.50;4974974;28;20033;-85
2023/06/05 10:43:48;;;;;;;4.47;1.70;;;;;;;21.10;73.86;101367.19;5010101;28;20071;-86
2023/06/05 10:46:26;;;;;;;4.20;2.03;;;;;;;21.26;75.59;101366.13;4991952;28;20034;-82
2023/06/05 10:49:15;;;;;;;3.05;1.95;;;;;;;21.28;74.29;101361.34;5011183;28;20392;-82
2023/06/05 10:51:44;;;;;;;3.25;1.60;;;;;;;21.25;74.94;101359.06;4981806;28;20182;-84
2023/06/05 10:54:31;;;;;;;3.10;1.90;;;;;;;21.32;74.35;101363.47;4991829;28;20041;-86
2023/06/05 10:57:03;;;;;;;3.70;1.88;;;;;;;21.30;73.10;101354.78;4970578;28;20576;-81
2023/06/05 10:59:34;;;;;;;3.75;1.92;;;;;;;21.25;72.55;101359.91;5010775;28;20397;-85
2023/06/05 11:02:06;;;;;;;5.47;2.05;;;;;;;21.29;72.56;101355.78;5026762;28;20029;-86
2023/06/05 11:04:47;;;;;;;6.38;2.08;;;;;;;21.34;71.03;101352.53;4989038;28;20030;-82
2023/06/05 11:07:28;;;;;;;4.53;2.00;;;;;;;21.44;72.17;101347.66;4981876;28;20029;-81
2023/06/05 11:10:03;;;;;;;3.33;2.08;;;;;;;21.52;70.04;101343.97;4980459;28;20043;-84
2023/06/05 11:12:34;;;;;;;4.93;1.70;;;;;;;21.55;69.59;101342.75;5011294;28;20036;-84
2023/06/05 11:15:01;;;;;;;4.13;1.92;;;;;;;21.56;68.02;101342.53;5027320;28;20120;-82
2023/06/05 11:17:44;;;;;;;5.38;1.77;;;;;;;21.71;67.29;101347.00;5050260;28;20029;-82
2023/06/05 11:20:28;;;;;;;6.75;1.98;;;;;;;21.73;67.18;101344.09;5025085;28;20034;-85
2023/06/05 11:22:55;;;;;;;3.40;2.38;;;;;;;21.73;68.56;101342.25;5001200;28;20656;-85
2023/06/05 11:25:21;;;;;;;3.58;1.52;;;;;;;21.92;69.26;101348.81;4994455;28;20056;-86